createdAt,value
2023-05-17T00:00:42.304Z,0.00
2023-05-17T00:01:41.249Z,0.00
2023-05-17T00:02:41.237Z,0.00
2023-05-17T00:03:41.826Z,0.00
2023-05-17T00:04:41.231Z,0.00
2023-05-17T00:05:42.151Z,0.00
2023-05-17T00:06:41.250Z,0.00
2023-05-17T00:07:41.149Z,0.00
2023-05-17T00:08:41.124Z,0.00
2023-05-17T00:09:41.131Z,0.00
2023-05-17T00:10:41.116Z,0.00
2023-05-17T00:11:42.021Z,0.00
2023-05-17T00:12:41.064Z,0.00
2023-05-17T00:13:41.041Z,0.00
2023-05-17T00:14:41.079Z,0.00
2023-05-17T00:15:41.044Z,0.00
2023-05-17T00:16:41.069Z,0.00
2023-05-17T00:17:42.007Z,0.00
2023-05-17T00:18:41.135Z,0.00
2023-05-17T00:19:41.069Z,0.00
2023-05-17T00:20:40.998Z,0.00
2023-05-17T00:21:40.960Z,0.00
2023-05-17T00:22:41.901Z,0.00
2023-05-17T00:23:40.938Z,0.00
2023-05-17T00:24:40.955Z,0.00
2023-05-17T00:25:40.910Z,0.00
2023-05-17T00:26:40.927Z,0.00
2023-05-17T00:27:41.815Z,0.00
2023-05-17T00:28:40.873Z,0.00
2023-05-17T00:29:40.861Z,0.00
2023-05-17T00:30:40.875Z,0.00
2023-05-17T00:31:41.520Z,0.00
2023-05-17T00:32:41.823Z,0.00
2023-05-17T00:33:40.854Z,0.00
2023-05-17T00:34:40.828Z,0.00
2023-05-17T00:35:40.801Z,0.00
2023-05-17T00:36:40.782Z,0.00
2023-05-17T00:37:40.752Z,0.00
2023-05-17T00:38:41.642Z,0.00
2023-05-17T00:39:40.760Z,0.00
2023-05-17T00:40:40.775Z,0.00
2023-05-17T00:41:43.351Z,0.00
2023-05-17T00:42:40.652Z,0.00
2023-05-17T00:43:40.685Z,0.00
2023-05-17T00:44:41.616Z,0.00
2023-05-17T00:45:40.655Z,0.00
2023-05-17T00:46:40.600Z,0.00
2023-05-17T00:47:40.681Z,0.00
2023-05-17T00:48:40.622Z,0.00
2023-05-17T00:49:40.620Z,0.00
2023-05-17T00:50:41.525Z,0.00
2023-05-17T00:51:40.603Z,0.00
2023-05-17T00:52:40.655Z,0.00
2023-05-17T00:53:40.550Z,0.00
2023-05-17T00:54:40.532Z,0.00
2023-05-17T00:55:40.495Z,0.00
2023-05-17T00:56:41.445Z,0.00
2023-05-17T00:57:40.474Z,0.00
2023-05-17T00:58:40.502Z,0.00
2023-05-17T00:59:40.507Z,0.00
2023-05-17T01:00:40.427Z,0.00
2023-05-17T01:01:41.374Z,0.00
2023-05-17T01:02:40.478Z,0.00
2023-05-17T01:03:40.441Z,0.00
2023-05-17T01:04:40.422Z,0.00
2023-05-17T01:05:40.405Z,0.00
2023-05-17T01:06:41.330Z,0.00
2023-05-17T01:07:40.404Z,0.00
2023-05-17T01:08:40.307Z,0.00
2023-05-17T01:09:40.397Z,0.00
2023-05-17T01:10:40.280Z,0.00
2023-05-17T01:11:40.305Z,0.00
2023-05-17T01:12:41.228Z,0.00
2023-05-17T01:13:44.071Z,0.00
2023-05-17T01:14:40.255Z,0.00
2023-05-17T01:15:40.266Z,0.00
2023-05-17T01:16:40.307Z,0.00
2023-05-17T01:17:40.365Z,0.00
2023-05-17T01:18:41.227Z,0.00
2023-05-17T01:19:40.264Z,0.00
2023-05-17T01:20:40.213Z,0.00
2023-05-17T01:21:40.170Z,0.00
2023-05-17T01:22:40.164Z,0.00
2023-05-17T01:23:41.077Z,0.00
2023-05-17T01:24:40.121Z,0.00
2023-05-17T01:25:40.193Z,0.00
2023-05-17T01:26:40.162Z,0.00
2023-05-17T01:27:40.141Z,0.00
2023-05-17T01:28:40.060Z,0.00
2023-05-17T01:29:41.000Z,0.00
2023-05-17T01:30:40.020Z,0.00
2023-05-17T01:31:40.061Z,0.00
2023-05-17T01:32:40.080Z,0.00
2023-05-17T01:33:40.135Z,0.00
2023-05-17T01:34:40.010Z,0.00
2023-05-17T01:35:40.953Z,0.00
2023-05-17T01:36:39.991Z,0.00
2023-05-17T01:37:39.998Z,0.00
2023-05-17T01:38:39.967Z,0.00
2023-05-17T01:39:39.944Z,0.00
2023-05-17T01:40:40.006Z,0.00
2023-05-17T01:41:40.956Z,0.00
2023-05-17T01:42:39.924Z,0.00
2023-05-17T01:43:39.902Z,0.00
2023-05-17T01:44:39.949Z,0.00
2023-05-17T01:45:39.890Z,0.00
2023-05-17T01:46:39.861Z,0.00
2023-05-17T01:47:40.785Z,0.00
2023-05-17T01:48:39.866Z,0.00
2023-05-17T01:49:39.792Z,0.00
2023-05-17T01:50:39.846Z,0.00
2023-05-17T01:51:39.799Z,0.00
2023-05-17T01:52:40.691Z,0.00
2023-05-17T01:53:39.737Z,0.00
2023-05-17T01:54:39.730Z,0.00
2023-05-17T01:55:39.729Z,0.00
2023-05-17T01:56:39.694Z,0.00
2023-05-17T01:57:40.581Z,0.00
2023-05-17T01:58:39.734Z,0.00
2023-05-17T01:59:39.660Z,0.00
2023-05-17T02:00:39.649Z,0.00
2023-05-17T02:01:39.676Z,0.00
2023-05-17T02:02:39.673Z,0.00
2023-05-17T02:03:40.614Z,0.00
2023-05-17T02:04:39.633Z,0.00
2023-05-17T02:05:39.666Z,0.00
2023-05-17T02:06:39.592Z,0.00
2023-05-17T02:07:39.618Z,0.00
2023-05-17T02:08:40.491Z,0.00
2023-05-17T02:09:39.510Z,0.00
2023-05-17T02:10:39.543Z,0.00
2023-05-17T02:11:39.509Z,0.00
2023-05-17T02:12:39.545Z,0.00
2023-05-17T02:13:39.461Z,0.00
2023-05-17T02:14:40.390Z,0.00
2023-05-17T02:15:39.456Z,0.00
2023-05-17T02:16:39.433Z,0.00
2023-05-17T02:17:39.531Z,0.00
2023-05-17T02:18:39.589Z,0.00
2023-05-17T02:19:39.411Z,0.00
2023-05-17T02:20:40.396Z,0.00
2023-05-17T02:21:39.402Z,0.00
2023-05-17T02:22:39.349Z,0.00
2023-05-17T02:23:39.413Z,0.00
2023-05-17T02:24:39.452Z,0.00
2023-05-17T02:25:39.320Z,0.00
2023-05-17T02:26:40.307Z,0.00
2023-05-17T02:27:39.291Z,0.00
2023-05-17T02:28:39.335Z,0.00
2023-05-17T02:29:39.285Z,0.00
2023-05-17T02:30:39.366Z,0.00
2023-05-17T02:31:39.282Z,0.00
2023-05-17T02:32:40.214Z,0.00
2023-05-17T02:33:39.248Z,0.00
2023-05-17T02:34:39.168Z,0.00
2023-05-17T02:35:39.198Z,0.00
2023-05-17T02:36:39.182Z,0.00
2023-05-17T02:37:39.187Z,4.00
2023-05-17T02:38:40.094Z,4.00
2023-05-17T02:39:39.230Z,4.00
2023-05-17T02:40:39.121Z,4.00
2023-05-17T02:41:39.103Z,0.00
2023-05-17T02:42:39.112Z,4.00
2023-05-17T02:43:40.031Z,4.00
2023-05-17T02:44:39.081Z,4.00
2023-05-17T02:45:39.081Z,4.00
2023-05-17T02:46:39.140Z,4.00
2023-05-17T02:47:39.203Z,4.00
2023-05-17T02:48:39.953Z,8.00
2023-05-17T02:49:38.997Z,4.00
2023-05-17T02:50:39.027Z,8.00
2023-05-17T02:51:39.010Z,8.00
2023-05-17T02:52:38.953Z,8.00
2023-05-17T02:53:39.873Z,8.00
2023-05-17T02:54:38.935Z,16.00
2023-05-17T02:55:38.900Z,16.00
2023-05-17T02:56:38.931Z,16.00
2023-05-17T02:57:38.945Z,20.00
2023-05-17T02:58:38.857Z,16.00
2023-05-17T02:59:39.788Z,20.00
2023-05-17T03:00:38.863Z,20.00
2023-05-17T03:01:38.885Z,24.00
2023-05-17T03:02:38.954Z,28.00
2023-05-17T03:03:39.040Z,32.00
2023-05-17T03:04:38.878Z,36.00
2023-05-17T03:05:39.691Z,40.00
2023-05-17T03:06:38.812Z,44.00
2023-05-17T03:07:38.800Z,44.00
2023-05-17T03:08:38.737Z,44.00
2023-05-17T03:09:38.726Z,52.00
2023-05-17T03:10:38.827Z,60.00
2023-05-17T03:11:39.678Z,68.00
2023-05-17T03:12:38.713Z,76.00
2023-05-17T03:13:38.710Z,84.00
2023-05-17T03:14:38.646Z,96.00
2023-05-17T03:15:38.694Z,104.00
2023-05-17T03:16:39.643Z,108.00
2023-05-17T03:17:38.701Z,120.00
2023-05-17T03:18:38.697Z,124.00
2023-05-17T03:19:38.636Z,132.00
2023-05-17T03:20:38.601Z,136.00
2023-05-17T03:21:39.527Z,148.00
2023-05-17T03:22:38.571Z,152.00
2023-05-17T03:23:38.561Z,160.00
2023-05-17T03:24:38.592Z,168.00
2023-05-17T03:25:38.606Z,172.00
2023-05-17T03:26:38.546Z,180.00
2023-05-17T03:27:39.533Z,192.00
2023-05-17T03:28:38.498Z,200.00
2023-05-17T03:29:38.512Z,212.00
2023-05-17T03:30:38.517Z,228.00
2023-05-17T03:31:38.445Z,248.00
2023-05-17T03:32:39.444Z,264.00
2023-05-17T03:33:38.661Z,276.00
2023-05-17T03:34:38.451Z,296.00
2023-05-17T03:35:38.492Z,324.00
2023-05-17T03:36:38.379Z,332.00
2023-05-17T03:37:39.325Z,348.00
2023-05-17T03:38:38.346Z,360.00
2023-05-17T03:39:38.342Z,372.00
2023-05-17T03:40:38.379Z,388.00
2023-05-17T03:41:38.340Z,380.00
2023-05-17T03:42:38.323Z,384.00
2023-05-17T03:43:39.210Z,376.00
2023-05-17T03:44:38.294Z,384.00
2023-05-17T03:45:38.284Z,392.00
2023-05-17T03:46:38.280Z,404.00
2023-05-17T03:47:38.278Z,416.00
2023-05-17T03:48:38.270Z,428.00
2023-05-17T03:49:39.820Z,440.00
2023-05-17T03:50:38.235Z,452.00
2023-05-17T03:51:38.204Z,464.00
2023-05-17T03:52:38.252Z,480.00
2023-05-17T03:53:38.152Z,492.00
2023-05-17T03:54:38.192Z,508.00
2023-05-17T03:55:39.092Z,524.00
2023-05-17T03:56:38.110Z,540.00
2023-05-17T03:57:38.093Z,552.00
2023-05-17T03:58:38.103Z,564.00
2023-05-17T03:59:38.068Z,580.00
2023-05-17T04:00:38.105Z,592.00
2023-05-17T04:01:38.999Z,604.00
2023-05-17T04:02:38.102Z,624.00
2023-05-17T04:03:38.084Z,648.00
2023-05-17T04:04:38.057Z,656.00
2023-05-17T04:05:38.005Z,672.00
2023-05-17T04:06:38.941Z,688.00
2023-05-17T04:07:38.016Z,712.00
2023-05-17T04:08:37.997Z,748.00
2023-05-17T04:09:37.983Z,800.00
2023-05-17T04:10:37.978Z,852.00
2023-05-17T04:11:37.931Z,920.00
2023-05-17T04:12:38.896Z,948.00
2023-05-17T04:13:37.871Z,940.00
2023-05-17T04:14:37.880Z,956.00
2023-05-17T04:15:37.928Z,948.00
2023-05-17T04:16:37.895Z,916.00
2023-05-17T04:17:37.844Z,852.00
2023-05-17T04:18:38.961Z,856.00
2023-05-17T04:19:37.801Z,848.00
2023-05-17T04:20:37.818Z,860.00
2023-05-17T04:21:37.849Z,868.00
2023-05-17T04:22:37.811Z,876.00
2023-05-17T04:23:37.832Z,888.00
2023-05-17T04:24:38.732Z,900.00
2023-05-17T04:25:37.736Z,908.00
2023-05-17T04:26:37.746Z,920.00
2023-05-17T04:27:37.687Z,932.00
2023-05-17T04:28:37.702Z,940.00
2023-05-17T04:29:37.667Z,952.00
2023-05-17T04:30:38.603Z,960.00
2023-05-17T04:31:37.694Z,972.00
2023-05-17T04:32:37.728Z,980.00
2023-05-17T04:33:37.734Z,984.00
2023-05-17T04:34:37.636Z,988.00
2023-05-17T04:35:38.555Z,996.00
2023-05-17T04:36:37.746Z,1008.00
2023-05-17T04:37:37.638Z,1020.00
2023-05-17T04:38:37.613Z,1036.00
2023-05-17T04:39:37.720Z,1036.00
2023-05-17T04:40:38.445Z,1044.00
2023-05-17T04:41:37.634Z,1052.00
2023-05-17T04:42:37.542Z,1060.00
2023-05-17T04:43:37.518Z,1072.00
2023-05-17T04:44:37.462Z,1076.00
2023-05-17T04:45:37.507Z,1080.00
2023-05-17T04:46:38.435Z,1048.00
2023-05-17T04:47:37.600Z,1076.00
2023-05-17T04:48:37.753Z,1096.00
2023-05-17T04:49:37.432Z,1124.00
2023-05-17T04:50:37.486Z,1124.00
2023-05-17T04:51:38.500Z,1128.00
2023-05-17T04:52:37.454Z,1136.00
2023-05-17T04:53:37.441Z,1132.00
2023-05-17T04:54:37.452Z,1148.00
2023-05-17T04:55:37.477Z,1152.00
2023-05-17T04:56:38.363Z,1156.00
2023-05-17T04:57:37.541Z,1164.00
2023-05-17T04:58:37.388Z,1172.00
2023-05-17T04:59:37.272Z,1176.00
2023-05-17T05:00:37.452Z,1184.00
2023-05-17T05:01:38.216Z,1188.00
2023-05-17T05:02:38.264Z,1196.00
2023-05-17T05:03:37.474Z,1200.00
2023-05-17T05:04:37.328Z,1208.00
2023-05-17T05:05:37.230Z,1212.00
2023-05-17T05:06:37.403Z,1216.00
2023-05-17T05:07:37.225Z,1216.00
2023-05-17T05:08:38.182Z,1224.00
2023-05-17T05:09:37.175Z,1232.00
2023-05-17T05:10:37.176Z,1236.00
2023-05-17T05:11:37.153Z,1248.00
2023-05-17T05:12:37.094Z,1252.00
2023-05-17T05:13:37.322Z,1272.00
2023-05-17T05:14:38.049Z,1272.00
2023-05-17T05:15:37.074Z,1280.00
2023-05-17T05:16:37.078Z,1280.00
2023-05-17T05:17:37.160Z,1284.00
2023-05-17T05:18:37.436Z,1272.00
2023-05-17T05:19:37.058Z,1304.00
2023-05-17T05:20:37.965Z,1320.00
2023-05-17T05:21:37.058Z,1336.00
2023-05-17T05:22:37.030Z,1356.00
2023-05-17T05:23:37.005Z,1372.00
2023-05-17T05:24:37.032Z,1408.00
2023-05-17T05:25:37.889Z,1396.00
2023-05-17T05:26:36.979Z,1520.00
2023-05-17T05:27:36.894Z,1464.00
2023-05-17T05:28:36.934Z,1888.00
2023-05-17T05:29:36.873Z,1740.00
2023-05-17T05:30:37.886Z,1632.00
2023-05-17T05:31:36.828Z,1716.00
2023-05-17T05:32:36.908Z,2148.00
2023-05-17T05:33:36.899Z,1536.00
2023-05-17T05:34:36.830Z,1484.00
2023-05-17T05:35:36.831Z,1476.00
2023-05-17T05:36:37.731Z,1480.00
2023-05-17T05:37:36.788Z,1488.00
2023-05-17T05:38:40.648Z,1520.00
2023-05-17T05:39:36.843Z,1560.00
2023-05-17T05:40:36.779Z,1560.00
2023-05-17T05:41:37.766Z,1644.00
2023-05-17T05:42:36.742Z,1492.00
2023-05-17T05:43:36.762Z,1536.00
2023-05-17T05:44:36.727Z,1544.00
2023-05-17T05:45:36.750Z,1588.00
2023-05-17T05:46:37.633Z,1608.00
2023-05-17T05:47:36.659Z,1704.00
2023-05-17T05:48:36.720Z,2100.00
2023-05-17T05:49:36.708Z,2156.00
2023-05-17T05:50:36.680Z,2188.00
2023-05-17T05:51:37.717Z,2312.00
2023-05-17T05:52:36.744Z,3272.00
2023-05-17T05:53:36.720Z,2692.00
2023-05-17T05:54:36.640Z,3936.00
2023-05-17T05:55:36.616Z,3640.00
2023-05-17T05:56:36.573Z,4472.00
2023-05-17T05:57:37.481Z,3820.00
2023-05-17T05:58:36.518Z,3092.00
2023-05-17T05:59:36.506Z,2172.00
2023-05-17T06:00:36.514Z,2120.00
2023-05-17T06:01:36.497Z,2184.00
2023-05-17T06:02:36.584Z,3344.00
2023-05-17T06:03:37.509Z,2344.00
2023-05-17T06:04:45.300Z,3592.00
2023-05-17T06:05:38.052Z,4032.00
2023-05-17T06:06:36.807Z,2764.00
2023-05-17T06:07:36.390Z,2260.00
2023-05-17T06:08:37.484Z,3100.00
2023-05-17T06:09:36.405Z,4036.00
2023-05-17T06:10:36.370Z,4004.00
2023-05-17T06:11:36.365Z,3052.00
2023-05-17T06:12:36.356Z,3504.00
2023-05-17T06:13:37.383Z,3196.00
2023-05-17T06:14:36.367Z,3304.00
2023-05-17T06:15:36.296Z,2992.00
2023-05-17T06:16:36.272Z,3372.00
2023-05-17T06:17:36.319Z,3516.00
2023-05-17T06:18:37.374Z,4892.00
2023-05-17T06:19:36.359Z,3624.00
2023-05-17T06:20:36.272Z,3464.00
2023-05-17T06:21:36.245Z,4792.00
2023-05-17T06:22:36.235Z,4572.00
2023-05-17T06:23:36.179Z,3312.00
2023-05-17T06:24:37.194Z,3072.00
2023-05-17T06:25:36.400Z,2708.00
2023-05-17T06:26:36.160Z,2556.00
2023-05-17T06:27:36.142Z,2396.00
2023-05-17T06:28:36.119Z,2528.00
2023-05-17T06:29:36.141Z,2228.00
2023-05-17T06:30:37.034Z,2320.00
2023-05-17T06:31:36.201Z,3380.00
2023-05-17T06:32:36.238Z,3740.00
2023-05-17T06:33:36.081Z,3608.00
2023-05-17T06:34:36.069Z,3580.00
2023-05-17T06:35:54.353Z,3040.00
2023-05-17T06:36:38.826Z,3616.00
2023-05-17T06:37:36.126Z,3804.00
2023-05-17T06:38:36.126Z,2828.00
2023-05-17T06:39:36.079Z,3212.00
2023-05-17T06:40:36.129Z,3708.00
2023-05-17T06:41:35.971Z,3648.00
2023-05-17T06:42:42.270Z,4456.00
2023-05-17T06:43:37.804Z,4492.00
2023-05-17T06:44:36.256Z,4332.00
2023-05-17T06:45:36.032Z,4020.00
2023-05-17T06:46:35.884Z,4140.00
2023-05-17T06:47:42.236Z,4204.00
2023-05-17T06:48:35.932Z,4296.00
2023-05-17T06:49:35.870Z,4456.00
2023-05-17T06:50:35.876Z,4544.00
2023-05-17T06:51:35.885Z,6164.00
2023-05-17T06:52:36.814Z,5804.00
2023-05-17T06:53:35.838Z,4840.00
2023-05-17T06:54:35.781Z,5104.00
2023-05-17T06:55:35.888Z,4636.00
2023-05-17T06:56:35.794Z,6692.00
2023-05-17T06:57:35.731Z,6980.00
2023-05-17T06:58:36.731Z,5360.00
2023-05-17T06:59:35.762Z,4760.00
2023-05-17T07:00:37.394Z,4440.00
2023-05-17T07:01:35.752Z,4484.00
2023-05-17T07:02:35.844Z,5064.00
2023-05-17T07:03:36.743Z,4928.00
2023-05-17T07:04:36.629Z,5056.00
2023-05-17T07:05:35.758Z,3804.00
2023-05-17T07:06:35.687Z,2756.00
2023-05-17T07:07:35.689Z,2968.00
2023-05-17T07:08:35.621Z,2616.00
2023-05-17T07:09:35.593Z,2492.00
2023-05-17T07:10:36.594Z,3636.00
2023-05-17T07:11:35.578Z,2752.00
2023-05-17T07:12:35.545Z,2656.00
2023-05-17T07:13:35.537Z,3384.00
2023-05-17T07:14:35.547Z,2568.00
2023-05-17T07:15:35.517Z,3680.00
2023-05-17T07:16:36.566Z,3300.00
2023-05-17T07:17:35.525Z,2804.00
2023-05-17T07:18:35.669Z,3464.00
2023-05-17T07:19:35.656Z,3764.00
2023-05-17T07:20:35.458Z,4240.00
2023-05-17T07:21:36.407Z,4216.00
2023-05-17T07:22:35.416Z,4708.00
2023-05-17T07:23:39.301Z,3984.00
2023-05-17T07:24:35.417Z,4052.00
2023-05-17T07:25:35.424Z,4416.00
2023-05-17T07:26:36.403Z,5308.00
2023-05-17T07:27:36.412Z,5468.00
2023-05-17T07:28:35.336Z,4264.00
2023-05-17T07:29:35.344Z,3192.00
2023-05-17T07:30:35.339Z,4220.00
2023-05-17T07:31:35.297Z,3456.00
2023-05-17T07:32:35.318Z,3724.00
2023-05-17T07:33:36.194Z,4872.00
2023-05-17T07:34:35.388Z,4544.00
2023-05-17T07:35:35.243Z,4604.00
2023-05-17T07:36:35.327Z,5836.00
2023-05-17T07:37:35.244Z,6716.00
2023-05-17T07:38:36.153Z,7132.00
2023-05-17T07:39:35.225Z,7220.00
2023-05-17T07:40:35.226Z,7872.00
2023-05-17T07:41:35.172Z,5952.00
2023-05-17T07:42:35.169Z,5904.00
2023-05-17T07:43:40.073Z,6380.00
2023-05-17T07:44:35.127Z,4204.00
2023-05-17T07:45:35.136Z,5100.00
2023-05-17T07:46:35.188Z,4892.00
2023-05-17T07:47:35.137Z,4692.00
2023-05-17T07:48:35.246Z,4788.00
2023-05-17T07:49:36.008Z,6304.00
2023-05-17T07:50:35.088Z,5620.00
2023-05-17T07:51:35.078Z,4056.00
2023-05-17T07:52:35.063Z,5688.00
2023-05-17T07:53:35.110Z,5396.00
2023-05-17T07:54:35.012Z,4520.00
2023-05-17T07:55:35.963Z,5164.00
2023-05-17T07:56:34.987Z,5152.00
2023-05-17T07:57:35.160Z,5164.00
2023-05-17T07:58:34.956Z,5232.00
2023-05-17T07:59:34.999Z,5260.00
2023-05-17T08:00:35.005Z,5348.00
2023-05-17T08:01:35.943Z,5776.00
2023-05-17T08:02:34.948Z,5400.00
2023-05-17T08:03:34.917Z,5272.00
2023-05-17T08:04:34.915Z,5352.00
2023-05-17T08:05:34.949Z,5356.00
2023-05-17T08:06:35.896Z,5420.00
2023-05-17T08:07:34.822Z,5468.00
2023-05-17T08:08:34.893Z,5540.00
2023-05-17T08:09:34.891Z,5568.00
2023-05-17T08:10:34.813Z,5592.00
2023-05-17T08:11:35.265Z,5656.00
2023-05-17T08:12:35.783Z,5728.00
2023-05-17T08:13:34.778Z,5764.00
2023-05-17T08:14:34.801Z,5816.00
2023-05-17T08:15:34.814Z,5908.00
2023-05-17T08:16:34.743Z,5936.00
2023-05-17T08:17:34.836Z,5992.00
2023-05-17T08:18:35.804Z,6032.00
2023-05-17T08:19:34.864Z,6088.00
2023-05-17T08:20:34.689Z,6072.00
2023-05-17T08:21:34.700Z,6144.00
2023-05-17T08:22:34.651Z,6220.00
2023-05-17T08:23:35.602Z,6188.00
2023-05-17T08:24:34.673Z,6228.00
2023-05-17T08:25:34.647Z,6292.00
2023-05-17T08:26:34.614Z,6384.00
2023-05-17T08:27:34.571Z,6460.00
2023-05-17T08:28:34.633Z,6488.00
2023-05-17T08:29:37.166Z,6560.00
2023-05-17T08:30:34.598Z,6628.00
2023-05-17T08:31:34.548Z,6644.00
2023-05-17T08:32:34.539Z,6684.00
2023-05-17T08:33:34.642Z,6740.00
2023-05-17T08:34:35.475Z,6936.00
2023-05-17T08:35:34.779Z,6976.00
2023-05-17T08:36:34.519Z,7032.00
2023-05-17T08:37:34.479Z,7144.00
2023-05-17T08:38:34.518Z,7216.00
2023-05-17T08:39:34.544Z,7316.00
2023-05-17T08:40:35.426Z,7340.00
2023-05-17T08:41:35.897Z,7572.00
2023-05-17T08:42:34.411Z,7752.00
2023-05-17T08:44:31.920Z,7424.00
2023-05-17T08:45:32.937Z,7448.00
2023-05-17T08:46:31.842Z,7468.00
2023-05-17T08:47:32.080Z,7536.00
2023-05-17T08:48:31.857Z,7612.00
2023-05-17T08:49:31.834Z,7652.00
2023-05-17T08:50:31.893Z,7696.00
2023-05-17T08:51:32.776Z,7724.00
2023-05-17T08:52:31.834Z,7712.00
2023-05-17T08:53:31.791Z,7836.00
2023-05-17T08:54:31.761Z,7884.00
2023-05-17T08:55:31.831Z,7940.00
2023-05-17T08:56:31.706Z,8000.00
2023-05-17T08:57:32.642Z,8084.00
2023-05-17T08:58:36.065Z,8204.00
2023-05-17T08:59:33.220Z,8216.00
2023-05-17T09:00:31.695Z,8172.00
2023-05-17T09:01:33.233Z,8324.00
2023-05-17T09:02:31.805Z,8368.00
2023-05-17T09:03:32.686Z,8420.00
2023-05-17T09:04:31.932Z,8476.00
2023-05-17T09:05:31.666Z,8468.00
2023-05-17T09:06:31.618Z,8584.00
2023-05-17T09:07:31.641Z,8596.00
2023-05-17T09:08:32.553Z,8708.00
2023-05-17T09:09:31.583Z,8816.00
2023-05-17T09:10:31.662Z,9028.00
2023-05-17T09:11:31.530Z,9080.00
2023-05-17T09:12:31.563Z,9024.00
2023-05-17T09:13:32.460Z,9148.00
2023-05-17T09:14:31.532Z,9408.00
2023-05-17T09:15:31.551Z,9116.00
2023-05-17T09:16:31.621Z,9156.00
2023-05-17T09:17:31.511Z,9036.00
2023-05-17T09:18:32.681Z,9136.00
2023-05-17T09:19:31.591Z,9240.00
2023-05-17T09:20:31.728Z,9272.00
2023-05-17T09:21:31.550Z,9348.00
2023-05-17T09:22:31.583Z,9400.00
2023-05-17T09:23:32.289Z,9492.00
2023-05-17T09:24:31.403Z,9428.00
2023-05-17T09:25:31.346Z,9464.00
2023-05-17T09:26:31.462Z,9500.00
2023-05-17T09:27:31.353Z,9524.00
2023-05-17T09:28:32.382Z,9696.00
2023-05-17T09:29:31.319Z,9768.00
2023-05-17T09:30:31.786Z,9864.00
2023-05-17T09:31:31.366Z,9920.00
2023-05-17T09:32:31.268Z,10000.00
2023-05-17T09:33:32.237Z,10016.00
2023-05-17T09:34:31.569Z,10092.00
2023-05-17T09:35:31.269Z,10128.00
2023-05-17T09:36:31.228Z,10200.00
2023-05-17T09:37:31.251Z,10216.00
2023-05-17T09:38:32.209Z,10336.00
2023-05-17T09:39:31.180Z,10376.00
2023-05-17T09:40:31.461Z,10440.00
2023-05-17T09:41:31.160Z,10528.00
2023-05-17T09:42:31.158Z,10608.00
2023-05-17T09:43:31.123Z,10760.00
2023-05-17T09:44:32.131Z,10800.00
2023-05-17T09:45:32.633Z,10868.00
2023-05-17T09:46:31.075Z,10968.00
2023-05-17T09:47:31.652Z,11012.00
2023-05-17T09:48:31.144Z,11064.00
2023-05-17T09:49:31.084Z,11160.00
2023-05-17T09:50:31.946Z,11256.00
2023-05-17T09:51:31.298Z,11368.00
2023-05-17T09:52:31.047Z,11420.00
2023-05-17T09:53:31.115Z,11452.00
2023-05-17T09:54:30.994Z,11568.00
2023-05-17T09:55:32.158Z,11636.00
2023-05-17T09:56:31.093Z,11676.00
2023-05-17T09:57:30.989Z,11824.00
2023-05-17T09:58:30.979Z,11840.00
2023-05-17T09:59:31.131Z,11984.00
2023-05-17T10:00:31.017Z,12024.00
2023-05-17T10:01:37.208Z,12116.00
2023-05-17T10:02:30.980Z,12204.00
2023-05-17T10:03:30.932Z,12248.00
2023-05-17T10:04:30.929Z,12228.00
2023-05-17T10:05:31.153Z,12396.00
2023-05-17T10:06:45.328Z,12508.00
2023-05-17T10:07:32.573Z,12644.00
2023-05-17T10:08:30.856Z,12844.00
2023-05-17T10:09:31.149Z,12916.00
2023-05-17T10:10:30.868Z,13040.00
2023-05-17T10:11:30.846Z,13088.00
2023-05-17T10:12:31.701Z,13204.00
2023-05-17T10:13:30.803Z,13380.00
2023-05-17T10:14:30.798Z,13472.00
2023-05-17T10:15:30.997Z,13532.00
2023-05-17T10:16:30.737Z,13728.00
2023-05-17T10:17:30.804Z,13824.00
2023-05-17T10:18:31.886Z,14080.00
2023-05-17T10:19:30.797Z,14176.00
2023-05-17T10:20:30.788Z,14336.00
2023-05-17T10:21:30.819Z,14496.00
2023-05-17T10:22:30.692Z,14720.00
2023-05-17T10:23:30.647Z,14912.00
2023-05-17T10:24:31.568Z,15232.00
2023-05-17T10:25:30.786Z,15488.00
2023-05-17T10:26:30.874Z,16064.00
2023-05-17T10:27:30.566Z,17856.00
2023-05-17T10:28:30.684Z,39360.00
2023-05-17T10:29:30.664Z,74784.00
2023-05-17T10:30:37.015Z,81920.00
2023-05-17T10:31:30.560Z,76320.00
2023-05-17T10:32:30.520Z,74272.00
2023-05-17T10:33:30.575Z,76640.00
2023-05-17T10:34:30.497Z,74592.00
2023-05-17T10:35:31.560Z,75808.00
2023-05-17T10:36:30.459Z,78240.00
2023-05-17T10:37:30.616Z,80768.00
2023-05-17T10:38:41.748Z,74432.00
2023-05-17T10:39:32.013Z,75136.00
2023-05-17T10:40:30.398Z,78048.00
2023-05-17T10:41:31.471Z,79424.00
2023-05-17T10:42:30.487Z,81984.00
2023-05-17T10:43:30.371Z,79808.00
2023-05-17T10:44:30.425Z,83008.00
2023-05-17T10:45:30.602Z,80608.00
2023-05-17T10:46:31.336Z,81568.00
2023-05-17T10:47:30.360Z,82528.00
2023-05-17T10:48:30.381Z,78176.00
2023-05-17T10:49:30.399Z,79776.00
2023-05-17T10:50:30.533Z,81280.00
2023-05-17T10:51:31.068Z,78080.00
2023-05-17T10:52:31.239Z,80352.00
2023-05-17T10:53:30.385Z,84800.00
2023-05-17T10:54:30.294Z,83040.00
2023-05-17T10:55:30.491Z,81568.00
2023-05-17T10:56:30.330Z,79968.00
2023-05-17T10:57:35.986Z,84032.00
2023-05-17T10:58:32.728Z,86400.00
2023-05-17T10:59:30.199Z,81216.00
2023-05-17T11:00:30.382Z,79680.00
2023-05-17T11:01:30.201Z,79136.00
2023-05-17T11:02:30.267Z,84384.00
2023-05-17T11:03:30.314Z,85568.00
2023-05-17T11:04:31.146Z,78016.00
2023-05-17T11:05:30.344Z,80320.00
2023-05-17T11:06:30.202Z,80576.00
2023-05-17T11:07:30.141Z,78720.00
2023-05-17T11:08:30.126Z,84032.00
2023-05-17T11:09:30.113Z,82816.00
2023-05-17T11:10:31.167Z,80544.00
2023-05-17T11:11:30.083Z,83552.00
2023-05-17T11:12:31.302Z,81024.00
2023-05-17T11:13:30.034Z,75008.00
2023-05-17T11:14:31.129Z,78752.00
2023-05-17T11:15:30.232Z,82016.00
2023-05-17T11:16:30.931Z,74272.00
2023-05-17T11:17:30.087Z,72992.00
2023-05-17T11:18:32.628Z,77344.00
2023-05-17T11:19:30.408Z,75136.00
2023-05-17T11:20:30.443Z,70272.00
2023-05-17T11:21:36.245Z,68768.00
2023-05-17T11:22:29.989Z,80832.00
2023-05-17T11:23:29.991Z,82912.00
2023-05-17T11:24:29.942Z,78368.00
2023-05-17T11:25:30.065Z,83104.00
2023-05-17T11:26:30.081Z,83552.00
2023-05-17T11:27:30.875Z,81600.00
2023-05-17T11:28:29.994Z,85504.00
2023-05-17T11:29:29.929Z,87552.00
2023-05-17T11:30:30.113Z,84512.00
2023-05-17T11:31:29.939Z,87168.00
2023-05-17T11:32:29.947Z,88576.00
2023-05-17T11:33:36.547Z,91904.00
2023-05-17T11:34:29.952Z,89888.00
2023-05-17T11:35:29.867Z,102080.00
2023-05-17T11:36:29.981Z,105792.00
2023-05-17T11:37:29.846Z,101184.00
2023-05-17T11:38:30.769Z,108224.00
2023-05-17T11:39:29.871Z,109952.00
2023-05-17T11:40:29.991Z,99232.00
2023-05-17T11:41:29.929Z,92288.00
2023-05-17T11:42:29.844Z,101984.00
2023-05-17T11:43:30.724Z,107232.00
2023-05-17T11:44:29.781Z,101248.00
2023-05-17T11:45:30.001Z,105440.00
2023-05-17T11:46:29.805Z,108896.00
2023-05-17T11:47:29.853Z,104512.00
2023-05-17T11:48:30.844Z,99040.00
2023-05-17T11:49:35.798Z,101664.00
2023-05-17T11:50:31.220Z,105120.00
2023-05-17T11:51:30.679Z,95552.00
2023-05-17T11:52:29.801Z,85280.00
2023-05-17T11:53:29.716Z,87872.00
2023-05-17T11:54:30.793Z,96992.00
2023-05-17T11:55:29.909Z,94400.00
2023-05-17T11:56:42.226Z,86944.00
2023-05-17T11:57:31.196Z,90400.00
2023-05-17T11:58:29.623Z,94816.00
2023-05-17T11:59:30.646Z,87680.00
2023-05-17T12:00:29.840Z,82880.00
2023-05-17T12:01:29.620Z,84960.00
2023-05-17T12:02:29.753Z,86240.00
2023-05-17T12:03:30.248Z,88160.00
2023-05-17T12:04:31.209Z,83776.00
2023-05-17T12:05:30.502Z,78784.00
2023-05-17T12:06:29.667Z,82400.00
2023-05-17T12:07:29.617Z,85184.00
2023-05-17T12:08:29.588Z,83520.00
2023-05-17T12:09:29.520Z,89376.00
2023-05-17T12:10:32.839Z,92672.00
2023-05-17T12:11:30.701Z,84352.00
2023-05-17T12:12:29.517Z,82048.00
2023-05-17T12:13:29.590Z,86688.00
2023-05-17T12:14:29.623Z,87200.00
2023-05-17T12:15:29.550Z,86528.00
2023-05-17T12:16:30.464Z,80896.00
2023-05-17T12:17:29.606Z,80256.00
2023-05-17T12:18:29.612Z,84864.00
2023-05-17T12:19:29.848Z,90752.00
2023-05-17T12:20:29.939Z,85312.00